Share

Parkersburg, WV (26101)

36th and Emerson (KWVPARKE6) Elev 689 ft | 39.29 °N, 81.53 °W | Change Station

Current weather conditions updated 10 minutes ago

Clear
Clear
48.4 °F
Feels Like 48 °F
N
0.0
Wind Variable Wind from ESE
Gusts 0.0 mph
Sunrise 6:43 AM
Sunset 8:07 PM
Moon Waning Gibbous

Today is forecast to be Cooler than yesterday.

Pressure 30.24 in
Visibility 9.0 miles
Clouds Clear
Windchill 48 °F
Dew Point 42 °F
Humidity 78%
Rainfall 0.00 in
Snow Depth Not available.
UV 0 out of 16
Pollen 9.60 out of 12
Air Quality Not available.
Flu Activity Sporadic
METAR KPKB 190553Z AUTO 00000KT 9SM CLR 10/03 A3024 RMK AO2 SLP238 T01000028 10189 20094 56002

More Conditions Fewer Conditions

Pressure 30.24 in
Visibility 9.0 miles
Clouds Clear
Windchill 48 °F
Dew Point 42 °F
Humidity 78%
Rainfall 0.00 in
Snow Depth Not available.
UV 0 out of 16
Pollen 9.60 out of 12
Air Quality Not available.
Flu Activity Sporadic
METAR KPKB 190553Z AUTO 00000KT 9SM CLR 10/03 A3024 RMK AO2 SLP238 T01000028 10189 20094 56002

More Conditions Fewer Conditions

10-Day Weather Forecast

Almanac

Astronomy

Apr. 19, 2014 Rise Set
Actual Time 6:43 AM EDT 8:07 PM EDT
Civil Twilight 6:15 AM EDT 8:35 PM EDT
Nautical Twilight 5:41 AM EDT 9:09 PM EDT
Astronomical Twilight 5:06 AM EDT 9:44 PM EDT
Moon No Moon Rise 10:01 AM EDT
Length of Visible Light 14h 20m
Length of Day
13h 24m
Tomorrow will be 2m 24s longer.
Waning Gibbous, 82% of the Moon is Illuminated
Today
Waning Gibbous
Apr 22
Last Quarter
Apr 29
New
May 6
First Quarter
May 14
Full

Today's Extremes

State Highs State Lows

Community

  • Sunset Silhouettes
    Sunset Silhouettes
  • FL sunset Perico Isle
    FL sunset Perico Isle
  • Cloudy spring view
    Cloudy spring view
  • Old barn
    Old barn
  • What's for Lunch?
    What's for Lunch?

WunderPhotos

Upload Photos

1,702,653 photos uploaded!

WunderBlogs® & News

Nearby

Snow Depth

Station Depth Elevation
No new snow has been reported.

Coastal Water Temperatures

Place Temperature
No Stations Reporting

Earthquake Activity

City Distance Mag. Time & Date
No recent earthquake activity has been reported nearby.
Minimum magnitude displayed is 2.5.

Nearby Weather Stations

Station Location Temp. Windchill Dew Point Humidity Wind Precip. Elev Updated Type
36th and Emerson, Parkersburg, WV 48.4 °F 48 °F 42 °F 78% ESE  at  0.0 mph 0.00 in / hr 689 ft 2:24 AM EDT Normal
Waterford, OH 42.0 °F 42 °F 40 °F 91% South  at  0.0 mph 0.00 in / hr 774 ft 1:23 AM CDT Normal
BEVERLY, OH 44.1 °F 44 °F 40 °F 87% North  at  0.0 mph 0.00 in / hr 702 ft 2:35 AM EDT Rapid Fire
Waterford, Waterford, OH 49.3 °F 49 °F 40 °F 70% North  at  0.0 mph 0.00 in / hr 854 ft 2:31 AM EDT Normal
Chester, Ohio near Shade river, Long Bottom, OH 43.3 °F 43 °F 39 °F 86% NNE  at  0.0 mph 0.00 in / hr 627 ft 2:28 AM EDT Normal

Show More Stations Show Fewer Stations

What do you think?

We're not finished. Please let us know what you like, what you don't like, and what you are still missing.